createdAt,value
2022-12-11T00:00:55.459Z,81.34
2022-12-11T00:03:23.113Z,82.78
2022-12-11T00:05:50.623Z,81.83
2022-12-11T00:08:18.186Z,81.25
2022-12-11T00:10:49.663Z,80.88
2022-12-11T00:13:17.217Z,82.14
2022-12-11T00:15:44.654Z,81.41
2022-12-11T00:18:14.158Z,81.18
2022-12-11T00:20:42.016Z,80.84
2022-12-11T00:23:10.926Z,80.99
2022-12-11T00:25:45.666Z,80.67
2022-12-11T00:28:19.918Z,81.49
2022-12-11T00:30:47.977Z,80.39
2022-12-11T00:33:15.694Z,80.65
2022-12-11T00:35:46.837Z,81.16
2022-12-11T00:38:17.789Z,81.51
2022-12-11T00:40:45.731Z,81.27
2022-12-11T00:43:14.400Z,81.92
2022-12-11T00:45:44.523Z,81.45
2022-12-11T00:48:13.376Z,81.45
2022-12-11T00:50:41.417Z,82.04
2022-12-11T00:53:08.899Z,82.25
2022-12-11T00:55:38.274Z,81.19
2022-12-11T00:58:07.300Z,81.47
2022-12-11T01:00:35.615Z,80.73
2022-12-11T01:03:03.668Z,80.52
2022-12-11T01:05:31.729Z,81.77
2022-12-11T01:07:59.816Z,80.95
2022-12-11T01:10:27.454Z,81.86
2022-12-11T01:12:56.430Z,81.81
2022-12-11T01:15:29.919Z,81.19
2022-12-11T01:17:57.572Z,81.62
2022-12-11T01:20:27.360Z,81.27
2022-12-11T01:22:57.323Z,81.22
2022-12-11T01:25:25.829Z,81.27
2022-12-11T01:27:55.348Z,81.39
2022-12-11T01:30:25.081Z,81.50
2022-12-11T01:32:52.734Z,81.70
2022-12-11T01:35:20.837Z,81.70
2022-12-11T01:37:49.019Z,81.40
2022-12-11T01:40:19.406Z,81.79
2022-12-11T01:42:47.223Z,81.50
2022-12-11T01:45:33.319Z,80.92
2022-12-11T01:48:14.217Z,81.44
2022-12-11T01:50:47.010Z,81.72
2022-12-11T01:53:20.058Z,82.33
2022-12-11T01:55:49.587Z,81.68
2022-12-11T01:58:18.664Z,82.16
2022-12-11T02:00:46.623Z,82.27
2022-12-11T02:03:14.416Z,82.17
2022-12-11T02:05:43.425Z,82.19
2022-12-11T02:08:12.085Z,80.92
2022-12-11T02:10:42.230Z,82.44
2022-12-11T02:13:19.124Z,82.30
2022-12-11T02:16:18.954Z,81.63
2022-12-11T02:18:59.109Z,82.75
2022-12-11T02:21:33.642Z,82.63
2022-12-11T02:24:45.944Z,82.09
2022-12-11T02:27:29.213Z,81.66
2022-12-11T02:30:05.932Z,80.92
2022-12-11T02:32:46.063Z,80.26
2022-12-11T02:35:22.295Z,82.50
2022-12-11T02:37:55.145Z,81.32
2022-12-11T02:40:27.832Z,82.34
2022-12-11T02:42:58.182Z,82.08
2022-12-11T02:45:27.576Z,83.11
2022-12-11T02:47:58.867Z,82.55
2022-12-11T02:50:28.956Z,81.84
2022-12-11T02:52:58.645Z,81.67
2022-12-11T02:55:28.464Z,81.74
2022-12-11T02:58:04.725Z,80.94
2022-12-11T03:00:33.011Z,82.27
2022-12-11T13:14:57.292Z,79.11
2022-12-11T13:43:50.981Z,75.64
2022-12-11T13:46:29.332Z,75.94
2022-12-11T13:49:01.172Z,77.11
2022-12-11T13:51:32.018Z,75.51
2022-12-11T13:54:17.281Z,78.39
2022-12-11T13:56:57.236Z,73.50
2022-12-11T13:59:37.160Z,76.02
2022-12-11T14:02:18.366Z,75.86
2022-12-11T14:04:49.577Z,75.15
2022-12-11T14:07:25.141Z,74.17
2022-12-11T14:09:59.782Z,75.92
2022-12-11T14:12:29.509Z,75.48
2022-12-11T14:14:59.817Z,74.84
2022-12-11T14:17:30.906Z,76.26
2022-12-11T14:20:03.115Z,77.15
2022-12-11T14:22:30.853Z,76.99
2022-12-11T14:25:03.612Z,76.81
2022-12-11T14:27:31.448Z,76.95
2022-12-11T14:30:11.353Z,77.43
2022-12-11T14:32:44.797Z,77.40
2022-12-11T14:35:38.697Z,77.87
2022-12-11T14:38:15.664Z,78.06
2022-12-11T14:40:47.483Z,76.90
2022-12-11T14:43:23.473Z,78.86
2022-12-11T14:45:57.476Z,78.06
2022-12-11T14:48:42.710Z,78.40
2022-12-11T14:51:13.085Z,76.31
2022-12-11T14:53:45.021Z,76.09
2022-12-11T14:56:25.747Z,74.09
2022-12-11T14:58:58.240Z,76.19
2022-12-11T15:01:29.841Z,76.01
2022-12-11T15:04:25.392Z,73.90
2022-12-11T15:06:53.159Z,75.46
2022-12-11T15:09:40.675Z,77.46
2022-12-11T15:12:13.839Z,76.53
2022-12-11T15:15:01.343Z,77.10
2022-12-11T15:17:33.035Z,76.60
2022-12-11T15:20:07.604Z,76.89
2022-12-11T15:22:36.131Z,77.61
2022-12-11T15:25:04.239Z,76.85
2022-12-11T15:27:39.738Z,77.21
2022-12-11T15:30:29.191Z,76.20
2022-12-11T15:33:05.712Z,75.68
2022-12-11T15:35:33.339Z,76.68
2022-12-11T15:38:01.076Z,76.05
2022-12-11T15:40:29.352Z,76.70
2022-12-11T15:42:57.937Z,75.65
2022-12-11T15:45:29.522Z,77.72
2022-12-11T15:48:00.178Z,76.31
2022-12-11T15:50:29.567Z,75.81
2022-12-11T15:52:57.413Z,76.63
2022-12-11T15:55:27.757Z,77.38
2022-12-11T15:57:59.499Z,75.38
2022-12-11T16:00:28.285Z,75.03
2022-12-11T16:02:57.134Z,76.15
2022-12-11T16:05:25.766Z,76.30
2022-12-11T16:07:54.701Z,75.07
2022-12-11T16:10:22.989Z,75.61
2022-12-11T16:12:51.238Z,76.35
2022-12-11T16:15:23.513Z,75.76
2022-12-11T16:18:03.354Z,76.37
2022-12-11T16:20:31.666Z,74.85
2022-12-11T16:23:00.497Z,76.57
2022-12-11T16:25:29.075Z,72.86
2022-12-11T16:27:58.202Z,75.34
2022-12-11T16:30:27.476Z,74.67
2022-12-11T16:32:55.985Z,72.88
2022-12-11T16:35:23.803Z,74.84
2022-12-11T16:37:53.339Z,74.78
2022-12-11T16:40:21.379Z,76.79
2022-12-11T16:42:52.188Z,74.34
2022-12-11T16:45:26.146Z,73.71
2022-12-11T16:47:55.133Z,75.31
2022-12-11T16:50:23.678Z,74.74
2022-12-11T16:52:51.189Z,74.81
2022-12-11T16:55:22.208Z,75.18
2022-12-11T16:57:49.753Z,75.06
2022-12-11T17:00:18.705Z,75.78
2022-12-11T17:02:46.297Z,74.58
2022-12-11T17:05:16.610Z,75.10
2022-12-11T17:07:44.529Z,74.16
2022-12-11T17:10:12.298Z,73.89
2022-12-11T17:12:40.219Z,75.11
2022-12-11T17:15:08.044Z,75.29
2022-12-11T17:17:35.600Z,74.98
2022-12-11T17:20:05.161Z,74.81
2022-12-11T17:22:33.381Z,75.05
2022-12-11T17:25:01.183Z,73.99
2022-12-11T17:27:29.895Z,75.83
2022-12-11T17:29:57.780Z,74.75
2022-12-11T17:32:25.976Z,75.97
2022-12-11T17:34:53.811Z,75.56
2022-12-11T17:37:21.689Z,75.80
2022-12-11T17:39:53.345Z,76.91
2022-12-11T17:42:21.511Z,75.50
2022-12-11T17:44:49.023Z,76.48
2022-12-11T17:47:17.018Z,75.08
2022-12-11T17:49:45.149Z,76.34
2022-12-11T17:52:12.905Z,75.17
2022-12-11T17:54:40.559Z,74.91
2022-12-11T17:57:09.823Z,74.34
2022-12-11T17:59:37.951Z,73.31
2022-12-11T18:02:05.599Z,72.43
2022-12-11T18:04:34.201Z,75.27
2022-12-11T18:07:02.193Z,76.05
2022-12-11T18:09:30.025Z,77.12
2022-12-11T18:11:57.735Z,75.70
2022-12-11T18:14:25.576Z,75.91
2022-12-11T18:16:53.332Z,77.13
2022-12-11T18:19:22.700Z,75.01
2022-12-11T18:21:50.484Z,73.87
2022-12-11T18:24:18.055Z,75.35
2022-12-11T18:26:46.964Z,75.79
2022-12-11T18:29:15.280Z,77.50
2022-12-11T18:31:43.670Z,76.36
2022-12-11T18:34:11.525Z,78.61
2022-12-11T18:36:40.839Z,78.13
2022-12-11T18:39:09.642Z,76.94
2022-12-11T18:41:37.403Z,76.65
2022-12-11T18:44:09.510Z,77.66
2022-12-11T18:46:39.605Z,78.01
2022-12-11T18:49:07.662Z,77.98
2022-12-11T18:51:35.990Z,76.29
2022-12-11T18:54:04.856Z,77.01
2022-12-11T18:56:32.650Z,75.99
2022-12-11T18:59:00.296Z,74.94
2022-12-11T19:01:29.934Z,76.99
2022-12-11T19:04:03.530Z,77.08
2022-12-11T19:06:35.468Z,76.49
2022-12-11T19:09:06.621Z,75.23
2022-12-11T19:11:35.655Z,74.56
2022-12-11T19:14:05.633Z,76.67
2022-12-11T19:16:36.621Z,76.98
2022-12-11T19:19:09.931Z,76.89
2022-12-11T19:21:38.708Z,76.99
2022-12-11T19:24:08.671Z,77.49
2022-12-11T19:26:36.663Z,77.24
2022-12-11T19:29:04.488Z,76.72
2022-12-11T19:31:33.911Z,78.04
2022-12-11T19:34:02.643Z,77.63
2022-12-11T19:36:33.599Z,77.46
2022-12-11T19:39:04.205Z,75.73
2022-12-11T19:41:33.917Z,76.93
2022-12-11T19:44:02.214Z,76.53
2022-12-11T19:46:30.071Z,75.29
2022-12-11T19:48:59.318Z,76.95
2022-12-11T19:51:38.298Z,76.10
2022-12-11T19:54:08.762Z,77.44
2022-12-11T19:56:36.406Z,76.61
2022-12-11T19:59:08.348Z,76.49
2022-12-11T20:01:37.650Z,78.31
2022-12-11T20:04:11.461Z,76.44
2022-12-11T20:06:42.906Z,76.08
2022-12-11T20:09:12.211Z,76.51
2022-12-11T20:11:43.648Z,76.15
2022-12-11T20:14:22.312Z,75.50
2022-12-11T20:17:11.061Z,76.43
2022-12-11T20:19:40.727Z,76.09
2022-12-11T20:22:09.198Z,77.67
2022-12-11T20:24:37.504Z,76.14
2022-12-11T20:27:05.185Z,77.93
2022-12-11T20:29:32.992Z,76.82
2022-12-11T20:32:00.921Z,77.03
2022-12-11T20:34:30.016Z,76.66
2022-12-11T20:36:57.870Z,76.70
2022-12-11T20:39:25.816Z,77.54
2022-12-11T20:41:53.716Z,78.51
2022-12-11T20:44:21.722Z,77.38
2022-12-11T20:46:50.731Z,77.39
2022-12-11T20:49:18.333Z,78.87
2022-12-11T20:51:46.121Z,79.18
2022-12-11T20:54:14.800Z,79.08
2022-12-11T20:56:42.648Z,78.22
2022-12-11T20:59:10.822Z,79.82
2022-12-11T21:01:40.256Z,80.57
2022-12-11T21:04:08.032Z,80.13
2022-12-11T21:06:38.709Z,79.12
2022-12-11T21:09:09.413Z,80.04
2022-12-11T21:11:37.158Z,80.01
2022-12-11T21:14:05.451Z,79.44
2022-12-11T21:16:36.612Z,79.33
2022-12-11T21:19:07.917Z,78.22
2022-12-11T21:21:39.922Z,80.50
2022-12-11T21:24:09.083Z,81.19
2022-12-11T21:26:36.531Z,82.28
2022-12-11T21:29:04.560Z,80.75
2022-12-11T21:31:32.189Z,80.85
2022-12-11T21:34:00.158Z,80.60
2022-12-11T21:36:27.754Z,81.44
2022-12-11T21:38:55.253Z,80.96
2022-12-11T21:41:24.141Z,81.12
2022-12-11T21:46:41.981Z,79.90
2022-12-11T21:49:10.077Z,80.02
2022-12-11T21:51:47.411Z,80.58
2022-12-11T21:54:18.453Z,78.16
2022-12-11T21:56:46.923Z,77.04
2022-12-11T21:59:14.765Z,78.91
2022-12-11T22:01:45.838Z,79.95
2022-12-11T22:04:14.517Z,79.94
2022-12-11T22:06:43.620Z,81.68
2022-12-11T22:09:12.551Z,80.06
2022-12-11T22:11:42.064Z,79.54
2022-12-11T22:14:15.331Z,81.49
2022-12-11T22:16:43.734Z,81.90
2022-12-11T22:19:11.669Z,80.89
2022-12-11T22:21:39.964Z,81.13
2022-12-11T22:24:07.579Z,80.23
2022-12-11T22:26:35.039Z,83.26
2022-12-11T22:29:02.946Z,82.29
2022-12-11T22:31:30.510Z,84.06
2022-12-11T22:33:57.967Z,81.73
2022-12-11T22:36:26.807Z,82.98
2022-12-11T22:38:54.551Z,83.18
2022-12-11T22:41:22.606Z,82.63
2022-12-11T22:43:51.294Z,82.43
2022-12-11T22:46:21.169Z,83.06
2022-12-11T22:48:48.860Z,83.40
2022-12-11T22:51:17.708Z,83.77
2022-12-11T22:53:45.297Z,78.58
2022-12-11T22:56:13.419Z,81.23
2022-12-11T22:58:41.394Z,82.36
2022-12-11T23:01:15.440Z,83.05
2022-12-11T23:03:43.116Z,82.90
2022-12-11T23:06:13.270Z,82.36
2022-12-11T23:08:43.061Z,81.91
2022-12-11T23:11:25.908Z,81.98
2022-12-11T23:13:54.671Z,81.28
2022-12-11T23:16:24.671Z,83.01
2022-12-11T23:18:53.293Z,81.66
2022-12-11T23:21:21.809Z,81.24
2022-12-11T23:23:49.610Z,82.36
2022-12-11T23:26:18.769Z,81.70
2022-12-11T23:28:47.406Z,82.35
2022-12-11T23:31:16.521Z,79.65
2022-12-11T23:33:44.682Z,80.19
2022-12-11T23:36:12.768Z,80.94
2022-12-11T23:38:40.892Z,81.06
2022-12-11T23:41:11.786Z,80.75
2022-12-11T23:43:41.291Z,81.22
2022-12-11T23:46:16.190Z,79.66
2022-12-11T23:48:44.762Z,80.39
2022-12-11T23:51:15.477Z,81.53
2022-12-11T23:53:43.383Z,80.67
2022-12-11T23:56:15.584Z,79.93
2022-12-11T23:58:45.363Z,79.59
